Time,TemperatureF,DewpointF,PressureIn,WindDirection,WindDirectionDegrees,WindSpeedMPH,WindSpeedGustMPH,Humidity,HourlyPrecipIn,Conditions,Clouds,dailyrainin,SoftwareType,DateUTC
2013-05-11 00:01:00,50.6,44.9,30.40,North,0,0.0,0.0,81,0.00,,,0.08,WUHU216HW,2013-05-11 04:01:00,
2013-05-11 00:02:00,50.6,44.9,30.40,North,0,0.0,0.0,81,0.00,,,0.00,WUHU216HW,2013-05-11 04:02:00,
2013-05-11 00:07:00,50.4,45.1,30.40,North,0,0.0,0.0,82,0.00,,,0.00,WUHU216HW,2013-05-11 04:07:00,
2013-05-11 00:12:00,50.2,44.9,30.40,North,0,0.0,0.0,82,0.00,,,0.00,WUHU216HW,2013-05-11 04:12:00,
2013-05-11 00:17:00,50.2,44.9,30.40,North,0,0.0,0.0,82,0.00,,,0.00,WUHU216HW,2013-05-11 04:17:00,
2013-05-11 00:22:00,50.2,44.9,30.40,North,0,0.0,0.0,82,0.00,,,0.00,WUHU216HW,2013-05-11 04:22:00,
2013-05-11 00:27:00,50.2,44.6,30.40,North,0,0.0,0.0,81,0.00,,,0.00,WUHU216HW,2013-05-11 04:27:00,
2013-05-11 00:32:00,50.0,44.4,30.40,North,0,0.0,0.0,81,0.00,,,0.00,WUHU216HW,2013-05-11 04:32:00,
2013-05-11 00:37:00,50.0,44.7,30.40,North,0,0.0,0.0,82,0.00,,,0.00,WUHU216HW,2013-05-11 04:37:00,
2013-05-11 00:42:00,50.0,44.7,30.41,North,0,0.0,0.0,82,0.00,,,0.00,WUHU216HW,2013-05-11 04:42:00,
2013-05-11 00:47:00,50.0,44.7,30.41,North,0,0.0,0.0,82,0.00,,,0.00,WUHU216HW,2013-05-11 04:47:00,
2013-05-11 00:52:00,50.0,44.7,30.40,North,0,0.0,0.0,82,0.00,,,0.00,WUHU216HW,2013-05-11 04:52:00,
2013-05-11 00:57:00,50.0,44.7,30.41,North,0,0.0,0.0,82,0.00,,,0.00,WUHU216HW,2013-05-11 04:57:00,
2013-05-11 01:02:00,49.9,44.6,30.41,North,0,0.0,0.0,82,0.00,,,0.00,WUHU216HW,2013-05-11 05:02:00,
2013-05-11 01:08:00,50.0,44.7,30.41,North,0,0.0,0.0,82,0.00,,,0.00,WUHU216HW,2013-05-11 05:08:00,
2013-05-11 01:13:00,49.7,44.0,30.41,North,0,0.0,0.0,81,0.00,,,0.00,WUHU216HW,2013-05-11 05:13:00,
2013-05-11 01:18:00,49.7,44.4,30.41,North,0,0.0,0.0,82,0.00,,,0.00,WUHU216HW,2013-05-11 05:18:00,
2013-05-11 01:23:00,49.7,44.4,30.41,North,0,0.0,0.0,82,0.00,,,0.00,WUHU216HW,2013-05-11 05:23:00,
2013-05-11 01:28:00,49.9,44.6,30.41,North,0,0.0,0.0,82,0.00,,,0.00,WUHU216HW,2013-05-11 05:28:00,
2013-05-11 01:33:00,49.7,44.4,30.41,North,0,0.0,0.0,82,0.00,,,0.00,WUHU216HW,2013-05-11 05:33:00,
2013-05-11 01:38:00,49.5,44.2,30.41,North,0,0.0,0.0,82,0.00,,,0.00,WUHU216HW,2013-05-11 05:38:00,
2013-05-11 01:43:00,49.3,44.0,30.41,North,0,0.0,0.0,82,0.00,,,0.00,WUHU216HW,2013-05-11 05:43:00,
2013-05-11 01:48:00,49.3,44.0,30.41,North,0,0.0,0.0,82,0.00,,,0.00,WUHU216HW,2013-05-11 05:48:00,
2013-05-11 01:53:00,49.3,44.0,30.41,North,0,0.0,0.0,82,0.00,,,0.00,WUHU216HW,2013-05-11 05:53:00,
2013-05-11 01:58:00,49.1,43.8,30.41,North,0,0.0,0.0,82,0.00,,,0.00,WUHU216HW,2013-05-11 05:58:00,
2013-05-11 02:04:00,49.1,43.8,30.41,North,0,0.0,0.0,82,0.00,,,0.00,WUHU216HW,2013-05-11 06:04:00,
2013-05-11 02:09:00,49.1,44.1,30.41,North,0,0.0,0.0,83,0.00,,,0.00,WUHU216HW,2013-05-11 06:09:00,
2013-05-11 02:14:00,49.0,44.0,30.41,North,0,0.0,0.0,83,0.00,,,0.00,WUHU216HW,2013-05-11 06:14:00,
2013-05-11 02:19:00,48.8,44.1,30.41,North,0,0.0,0.0,84,0.00,,,0.00,WUHU216HW,2013-05-11 06:19:00,
2013-05-11 02:24:00,48.6,43.7,30.41,North,0,0.0,0.0,83,0.00,,,0.00,WUHU216HW,2013-05-11 06:24:00,
2013-05-11 02:29:00,48.6,43.7,30.41,North,0,0.0,0.0,83,0.00,,,0.00,WUHU216HW,2013-05-11 06:29:00,
2013-05-11 02:34:00,48.6,43.7,30.41,North,0,0.0,0.0,83,0.00,,,0.00,WUHU216HW,2013-05-11 06:34:00,
2013-05-11 02:39:00,48.6,43.9,30.41,North,0,0.0,0.0,84,0.00,,,0.00,WUHU216HW,2013-05-11 06:39:00,
2013-05-11 02:44:00,48.6,43.9,30.41,North,0,0.0,0.0,84,0.00,,,0.00,WUHU216HW,2013-05-11 06:44:00,
2013-05-11 02:49:00,48.4,43.5,30.41,North,0,0.0,0.0,83,0.00,,,0.00,WUHU216HW,2013-05-11 06:49:00,
2013-05-11 02:55:00,48.4,43.7,30.41,North,0,0.0,0.0,84,0.00,,,0.00,WUHU216HW,2013-05-11 06:55:00,
2013-05-11 03:00:00,48.6,43.9,30.41,North,0,0.0,0.0,84,0.00,,,0.00,WUHU216HW,2013-05-11 07:00:00,
2013-05-11 03:05:00,48.4,43.7,30.42,North,0,0.0,0.0,84,0.00,,,0.00,WUHU216HW,2013-05-11 07:05:00,
2013-05-11 03:10:00,48.1,42.8,30.41,North,0,0.0,0.0,82,0.00,,,0.00,WUHU216HW,2013-05-11 07:10:00,
2013-05-11 03:15:00,47.9,42.9,30.41,North,0,0.0,0.0,83,0.00,,,0.00,WUHU216HW,2013-05-11 07:15:00,
2013-05-11 03:20:00,47.7,42.8,30.41,North,0,0.0,0.0,83,0.00,,,0.00,WUHU216HW,2013-05-11 07:20:00,
2013-05-11 03:25:00,47.5,42.6,30.41,North,0,0.0,0.0,83,0.00,,,0.00,WUHU216HW,2013-05-11 07:25:00,
2013-05-11 03:30:00,47.5,42.9,30.41,North,0,0.0,0.0,84,0.00,,,0.00,WUHU216HW,2013-05-11 07:30:00,
2013-05-11 03:35:00,47.5,42.9,30.41,North,0,0.0,0.0,84,0.00,,,0.00,WUHU216HW,2013-05-11 07:35:00,
2013-05-11 03:40:00,47.5,42.9,30.41,North,0,0.0,0.0,84,0.00,,,0.00,WUHU216HW,2013-05-11 07:40:00,
2013-05-11 03:45:00,47.5,42.9,30.41,North,0,0.0,0.0,84,0.00,,,0.00,WUHU216HW,2013-05-11 07:45:00,
2013-05-11 03:51:00,47.3,42.8,30.41,North,0,0.0,0.0,84,0.00,,,0.00,WUHU216HW,2013-05-11 07:51:00,
2013-05-11 03:56:00,47.3,43.0,30.42,North,0,0.0,0.0,85,0.00,,,0.00,WUHU216HW,2013-05-11 07:56:00,
2013-05-11 04:01:00,47.2,42.6,30.41,North,0,0.0,0.0,84,0.00,,,0.00,WUHU216HW,2013-05-11 08:01:00,
2013-05-11 04:06:00,47.2,42.6,30.41,North,0,0.0,0.0,84,0.00,,,0.00,WUHU216HW,2013-05-11 08:06:00,
2013-05-11 04:11:00,47.0,42.8,30.41,North,0,0.0,0.0,85,0.01,,,0.01,WUHU216HW,2013-05-11 08:11:00,
2013-05-11 04:16:00,46.8,42.6,30.42,North,0,0.0,0.0,85,0.01,,,0.01,WUHU216HW,2013-05-11 08:16:00,
2013-05-11 04:21:00,46.6,42.7,30.42,North,0,0.0,0.0,86,0.01,,,0.01,WUHU216HW,2013-05-11 08:21:00,
2013-05-11 04:26:00,46.4,42.9,30.42,North,0,0.0,0.0,87,0.01,,,0.01,WUHU216HW,2013-05-11 08:26:00,
2013-05-11 04:31:00,46.4,42.5,30.41,North,0,0.0,0.0,86,0.01,,,0.01,WUHU216HW,2013-05-11 08:31:00,
2013-05-11 04:36:00,46.4,42.5,30.41,North,0,0.0,0.0,86,0.01,,,0.01,WUHU216HW,2013-05-11 08:36:00,
2013-05-11 04:41:00,46.4,42.5,30.41,North,0,0.0,0.0,86,0.01,,,0.01,WUHU216HW,2013-05-11 08:41:00,
2013-05-11 04:46:00,46.4,42.9,30.42,North,0,0.0,0.0,87,0.01,,,0.01,WUHU216HW,2013-05-11 08:46:00,
2013-05-11 04:52:00,46.4,42.9,30.41,North,0,0.0,0.0,87,0.01,,,0.01,WUHU216HW,2013-05-11 08:52:00,
2013-05-11 04:57:00,46.4,42.9,30.42,North,0,0.0,0.0,87,0.01,,,0.01,WUHU216HW,2013-05-11 08:57:00,
2013-05-11 05:02:00,46.3,42.7,30.41,North,0,0.0,0.0,87,0.01,,,0.01,WUHU216HW,2013-05-11 09:02:00,
2013-05-11 05:07:00,46.3,42.7,30.41,North,0,0.0,0.0,87,0.00,,,0.01,WUHU216HW,2013-05-11 09:07:00,
2013-05-11 05:12:00,46.3,42.7,30.41,North,0,0.0,0.0,87,0.00,,,0.01,WUHU216HW,2013-05-11 09:12:00,
2013-05-11 05:17:00,46.1,42.5,30.41,North,0,0.0,0.0,87,0.00,,,0.01,WUHU216HW,2013-05-11 09:17:00,
2013-05-11 05:22:00,46.1,42.8,30.41,North,0,0.0,0.0,88,0.00,,,0.01,WUHU216HW,2013-05-11 09:22:00,
2013-05-11 05:27:00,46.1,42.8,30.41,North,0,0.0,0.0,88,0.00,,,0.01,WUHU216HW,2013-05-11 09:27:00,
2013-05-11 05:32:00,46.1,42.8,30.41,North,0,0.0,0.0,88,0.00,,,0.01,WUHU216HW,2013-05-11 09:32:00,
2013-05-11 05:37:00,46.1,42.8,30.41,North,0,0.0,0.0,88,0.00,,,0.01,WUHU216HW,2013-05-11 09:37:00,
2013-05-11 05:42:00,46.1,42.8,30.41,North,0,0.0,0.0,88,0.00,,,0.01,WUHU216HW,2013-05-11 09:42:00,
2013-05-11 05:47:00,46.1,42.8,30.41,North,0,0.0,0.0,88,0.00,,,0.01,WUHU216HW,2013-05-11 09:47:00,
2013-05-11 05:53:00,46.1,42.8,30.41,North,0,0.0,0.0,88,0.00,,,0.01,WUHU216HW,2013-05-11 09:53:00,
2013-05-11 05:58:00,46.1,42.8,30.41,North,0,0.0,0.0,88,0.00,,,0.01,WUHU216HW,2013-05-11 09:58:00,
2013-05-11 06:03:00,46.1,42.8,30.41,North,0,0.0,0.0,88,0.00,,,0.01,WUHU216HW,2013-05-11 10:03:00,
2013-05-11 06:08:00,46.1,42.8,30.40,North,0,0.0,0.0,88,0.00,,,0.01,WUHU216HW,2013-05-11 10:08:00,
2013-05-11 06:13:00,46.1,42.8,30.41,North,0,0.0,0.0,88,0.00,,,0.01,WUHU216HW,2013-05-11 10:13:00,
2013-05-11 06:18:00,45.9,42.6,30.41,North,0,0.0,0.0,88,0.00,,,0.01,WUHU216HW,2013-05-11 10:18:00,
2013-05-11 06:23:00,45.9,42.6,30.41,North,0,0.0,0.0,88,0.00,,,0.01,WUHU216HW,2013-05-11 10:23:00,
2013-05-11 06:28:00,45.9,42.6,30.40,North,0,0.0,0.0,88,0.00,,,0.01,WUHU216HW,2013-05-11 10:28:00,
2013-05-11 06:33:00,46.1,42.8,30.41,North,0,0.0,0.0,88,0.00,,,0.01,WUHU216HW,2013-05-11 10:33:00,
2013-05-11 06:38:00,46.1,42.8,30.41,North,0,0.0,0.0,88,0.00,,,0.01,WUHU216HW,2013-05-11 10:38:00,
2013-05-11 06:43:00,46.1,42.8,30.41,North,0,0.0,0.0,88,0.00,,,0.01,WUHU216HW,2013-05-11 10:43:00,
2013-05-11 06:48:00,46.1,43.1,30.41,North,0,0.0,0.0,89,0.00,,,0.01,WUHU216HW,2013-05-11 10:48:00,
2013-05-11 06:53:00,45.9,42.6,30.41,North,0,0.0,0.0,88,0.00,,,0.01,WUHU216HW,2013-05-11 10:53:00,
2013-05-11 06:59:00,45.9,42.9,30.41,North,0,0.0,0.0,89,0.00,,,0.01,WUHU216HW,2013-05-11 10:59:00,
2013-05-11 07:04:00,45.9,42.9,30.41,North,0,0.0,0.0,89,0.00,,,0.01,WUHU216HW,2013-05-11 11:04:00,
2013-05-11 07:09:00,45.9,42.9,30.41,North,0,0.0,0.0,89,0.00,,,0.01,WUHU216HW,2013-05-11 11:09:00,
2013-05-11 07:14:00,45.9,42.9,30.41,North,0,0.0,0.0,89,0.00,,,0.01,WUHU216HW,2013-05-11 11:14:00,
2013-05-11 07:19:00,45.9,42.9,30.41,North,0,0.0,0.0,89,0.00,,,0.01,WUHU216HW,2013-05-11 11:19:00,
2013-05-11 07:24:00,46.1,42.8,30.41,North,0,0.0,0.0,88,0.00,,,0.01,WUHU216HW,2013-05-11 11:24:00,
2013-05-11 07:29:00,45.9,42.6,30.41,North,0,0.0,0.0,88,0.00,,,0.01,WUHU216HW,2013-05-11 11:29:00,
2013-05-11 07:34:00,46.1,42.8,30.41,North,0,0.0,0.0,88,0.00,,,0.01,WUHU216HW,2013-05-11 11:34:00,
2013-05-11 07:40:00,46.1,42.5,30.41,North,0,0.0,0.0,87,0.00,,,0.01,WUHU216HW,2013-05-11 11:40:00,
2013-05-11 07:45:00,46.1,42.5,30.41,North,0,0.0,0.0,87,0.00,,,0.01,WUHU216HW,2013-05-11 11:45:00,
2013-05-11 07:50:00,46.1,42.5,30.41,North,0,0.0,0.0,87,0.00,,,0.01,WUHU216HW,2013-05-11 11:50:00,
2013-05-11 07:55:00,46.1,42.1,30.41,North,0,0.0,0.0,86,0.00,,,0.01,WUHU216HW,2013-05-11 11:55:00,
2013-05-11 08:00:00,46.1,42.1,30.41,North,0,0.0,0.0,86,0.00,,,0.01,WUHU216HW,2013-05-11 12:00:00,
2013-05-11 08:05:00,46.1,42.1,30.42,North,0,0.0,0.0,86,0.00,,,0.01,WUHU216HW,2013-05-11 12:05:00,
2013-05-11 08:10:00,46.3,42.3,30.41,North,0,0.0,0.0,86,0.00,,,0.01,WUHU216HW,2013-05-11 12:10:00,
2013-05-11 08:15:00,46.3,42.3,30.41,North,0,0.0,0.0,86,0.00,,,0.01,WUHU216HW,2013-05-11 12:15:00,
2013-05-11 08:20:00,46.3,42.3,30.41,North,0,0.0,0.0,86,0.00,,,0.01,WUHU216HW,2013-05-11 12:20:00,
2013-05-11 08:25:00,46.3,42.3,30.42,North,0,0.0,0.0,86,0.00,,,0.01,WUHU216HW,2013-05-11 12:25:00,
2013-05-11 08:30:00,46.3,42.3,30.41,North,0,0.0,0.0,86,0.00,,,0.01,WUHU216HW,2013-05-11 12:30:00,
2013-05-11 08:35:00,46.3,42.3,30.41,North,0,0.0,0.0,86,0.00,,,0.01,WUHU216HW,2013-05-11 12:35:00,
2013-05-11 08:40:00,46.3,42.3,30.41,North,0,0.0,0.0,86,0.00,,,0.01,WUHU216HW,2013-05-11 12:40:00,
2013-05-11 08:45:00,46.4,42.5,30.42,North,0,0.0,0.0,86,0.00,,,0.01,WUHU216HW,2013-05-11 12:45:00,
2013-05-11 08:50:00,46.4,42.5,30.41,North,0,0.0,0.0,86,0.00,,,0.01,WUHU216HW,2013-05-11 12:50:00,
2013-05-11 08:55:00,46.3,42.3,30.41,North,0,0.0,0.0,86,0.00,,,0.01,WUHU216HW,2013-05-11 12:55:00,
2013-05-11 09:00:00,46.4,42.5,30.41,North,0,0.0,0.0,86,0.00,,,0.01,WUHU216HW,2013-05-11 13:00:00,
2013-05-11 09:06:00,46.4,42.5,30.41,North,0,0.0,0.0,86,0.00,,,0.01,WUHU216HW,2013-05-11 13:06:00,
2013-05-11 09:11:00,46.4,42.2,30.41,North,0,0.0,0.0,85,0.00,,,0.01,WUHU216HW,2013-05-11 13:11:00,
2013-05-11 09:16:00,46.4,42.2,30.41,North,0,0.0,0.0,85,0.00,,,0.01,WUHU216HW,2013-05-11 13:16:00,
2013-05-11 09:21:00,46.4,42.2,30.42,North,0,0.0,0.0,85,0.00,,,0.01,WUHU216HW,2013-05-11 13:21:00,
2013-05-11 09:26:00,46.4,42.2,30.42,North,0,0.0,0.0,85,0.00,,,0.01,WUHU216HW,2013-05-11 13:26:00,
2013-05-11 09:31:00,46.4,42.2,30.42,North,0,0.0,0.0,85,0.00,,,0.01,WUHU216HW,2013-05-11 13:31:00,
2013-05-11 09:36:00,46.4,42.2,30.42,North,0,0.0,0.0,85,0.00,,,0.01,WUHU216HW,2013-05-11 13:36:00,
2013-05-11 09:41:00,46.4,42.2,30.42,North,0,0.0,0.0,85,0.00,,,0.01,WUHU216HW,2013-05-11 13:41:00,
2013-05-11 09:46:00,46.6,42.4,30.42,North,0,0.0,0.0,85,0.00,,,0.01,WUHU216HW,2013-05-11 13:46:00,
2013-05-11 09:51:00,46.6,42.4,30.42,North,0,0.0,0.0,85,0.00,,,0.01,WUHU216HW,2013-05-11 13:51:00,
2013-05-11 09:56:00,46.8,42.6,30.42,North,0,0.0,0.0,85,0.00,,,0.01,WUHU216HW,2013-05-11 13:56:00,
2013-05-11 10:01:00,46.8,42.6,30.42,North,0,0.0,0.0,85,0.00,,,0.01,WUHU216HW,2013-05-11 14:01:00,
2013-05-11 10:06:00,47.0,42.8,30.43,North,0,0.0,0.0,85,0.00,,,0.01,WUHU216HW,2013-05-11 14:06:00,
2013-05-11 10:12:00,46.8,42.6,30.43,North,0,0.0,0.0,85,0.00,,,0.01,WUHU216HW,2013-05-11 14:12:00,
2013-05-11 10:17:00,47.0,42.8,30.43,North,0,0.0,0.0,85,0.00,,,0.01,WUHU216HW,2013-05-11 14:17:00,
2013-05-11 10:22:00,46.8,42.6,30.43,North,0,0.0,0.0,85,0.00,,,0.01,WUHU216HW,2013-05-11 14:22:00,
2013-05-11 10:27:00,46.8,42.6,30.43,North,0,0.0,0.0,85,0.00,,,0.01,WUHU216HW,2013-05-11 14:27:00,
2013-05-11 10:32:00,47.0,42.8,30.43,North,0,0.0,0.0,85,0.00,,,0.01,WUHU216HW,2013-05-11 14:32:00,
2013-05-11 10:37:00,47.2,42.9,30.43,North,0,0.0,0.0,85,0.00,,,0.01,WUHU216HW,2013-05-11 14:37:00,
2013-05-11 10:42:00,47.2,42.9,30.43,North,0,0.0,0.0,85,0.00,,,0.01,WUHU216HW,2013-05-11 14:42:00,
2013-05-11 10:47:00,47.5,42.9,30.42,North,0,0.0,0.0,84,0.00,,,0.01,WUHU216HW,2013-05-11 14:47:00,
2013-05-11 10:52:00,47.3,42.8,30.42,North,0,0.0,0.0,84,0.00,,,0.01,WUHU216HW,2013-05-11 14:52:00,
2013-05-11 10:57:00,47.3,42.8,30.42,North,0,0.0,0.0,84,0.00,,,0.01,WUHU216HW,2013-05-11 14:57:00,
2013-05-11 11:02:00,47.5,43.2,30.42,North,0,0.0,0.0,85,0.00,,,0.01,WUHU216HW,2013-05-11 15:02:00,
2013-05-11 11:07:00,47.9,43.3,30.42,North,0,0.0,0.0,84,0.00,,,0.01,WUHU216HW,2013-05-11 15:07:00,
2013-05-11 11:12:00,47.9,42.9,30.42,North,0,0.0,0.0,83,0.00,,,0.01,WUHU216HW,2013-05-11 15:12:00,
2013-05-11 11:17:00,47.9,42.9,30.42,North,0,0.0,0.0,83,0.00,,,0.01,WUHU216HW,2013-05-11 15:17:00,
2013-05-11 11:23:00,48.1,43.1,30.42,North,0,0.0,0.0,83,0.00,,,0.01,WUHU216HW,2013-05-11 15:23:00,
2013-05-11 11:28:00,48.2,43.3,30.42,North,0,0.0,0.0,83,0.00,,,0.01,WUHU216HW,2013-05-11 15:28:00,
2013-05-11 11:33:00,48.4,43.5,30.42,North,0,0.0,0.0,83,0.00,,,0.01,WUHU216HW,2013-05-11 15:33:00,
2013-05-11 11:38:00,48.4,43.5,30.42,North,0,0.0,0.0,83,0.00,,,0.01,WUHU216HW,2013-05-11 15:38:00,
2013-05-11 11:43:00,48.6,43.3,30.42,North,0,0.0,0.0,82,0.00,,,0.01,WUHU216HW,2013-05-11 15:43:00,
2013-05-11 11:48:00,48.8,43.8,30.42,North,0,0.0,0.0,83,0.00,,,0.01,WUHU216HW,2013-05-11 15:48:00,
2013-05-11 11:53:00,49.1,44.1,30.42,North,0,0.0,0.0,83,0.00,,,0.01,WUHU216HW,2013-05-11 15:53:00,
2013-05-11 11:58:00,49.5,44.5,30.41,North,0,0.0,0.0,83,0.00,,,0.01,WUHU216HW,2013-05-11 15:58:00,
2013-05-11 12:03:00,50.0,44.7,30.42,North,0,0.0,0.0,82,0.00,,,0.01,WUHU216HW,2013-05-11 16:03:00,
2013-05-11 12:08:00,50.0,44.4,30.42,North,0,0.0,0.0,81,0.00,,,0.01,WUHU216HW,2013-05-11 16:08:00,
2013-05-11 12:13:00,50.0,44.4,30.42,North,0,0.0,0.0,81,0.00,,,0.01,WUHU216HW,2013-05-11 16:13:00,
2013-05-11 12:18:00,50.0,44.4,30.42,North,0,0.0,0.0,81,0.00,,,0.01,WUHU216HW,2013-05-11 16:18:00,
2013-05-11 12:23:00,50.2,44.6,30.42,North,0,0.0,0.0,81,0.00,,,0.01,WUHU216HW,2013-05-11 16:23:00,
2013-05-11 12:29:00,50.2,44.3,30.42,North,0,0.0,0.0,80,0.00,,,0.01,WUHU216HW,2013-05-11 16:29:00,
2013-05-11 12:34:00,50.2,44.3,30.42,North,0,0.0,0.0,80,0.00,,,0.01,WUHU216HW,2013-05-11 16:34:00,
2013-05-11 12:39:00,50.2,44.3,30.42,North,0,0.0,0.0,80,0.00,,,0.01,WUHU216HW,2013-05-11 16:39:00,
2013-05-11 12:44:00,50.4,44.5,30.42,North,0,0.0,0.0,80,0.00,,,0.01,WUHU216HW,2013-05-11 16:44:00,
2013-05-11 12:49:00,50.8,44.8,30.41,North,0,0.0,0.0,80,0.00,,,0.01,WUHU216HW,2013-05-11 16:49:00,
2013-05-11 12:54:00,51.1,45.5,30.41,North,0,0.0,0.0,81,0.00,,,0.01,WUHU216HW,2013-05-11 16:54:00,
2013-05-11 12:59:00,51.5,45.5,30.41,North,0,0.0,0.0,80,0.00,,,0.01,WUHU216HW,2013-05-11 16:59:00,
2013-05-11 13:04:00,52.2,46.3,30.41,North,0,0.0,0.0,80,0.00,,,0.01,WUHU216HW,2013-05-11 17:04:00,
2013-05-11 13:09:00,52.7,46.8,30.41,North,0,0.0,0.0,80,0.00,,,0.01,WUHU216HW,2013-05-11 17:09:00,
2013-05-11 13:14:00,53.1,46.8,30.41,North,0,0.0,0.0,79,0.00,,,0.01,WUHU216HW,2013-05-11 17:14:00,
2013-05-11 13:19:00,53.5,47.2,30.40,North,0,0.0,0.0,79,0.00,,,0.01,WUHU216HW,2013-05-11 17:19:00,
2013-05-11 13:24:00,53.6,47.0,30.40,North,0,0.0,0.0,78,0.00,,,0.01,WUHU216HW,2013-05-11 17:24:00,
2013-05-11 13:29:00,53.8,47.2,30.40,North,0,0.0,0.0,78,0.00,,,0.01,WUHU216HW,2013-05-11 17:29:00,
2013-05-11 13:35:00,54.0,47.4,30.40,North,0,0.0,0.0,78,0.00,,,0.01,WUHU216HW,2013-05-11 17:35:00,
2013-05-11 13:40:00,53.8,46.8,30.40,North,0,0.0,0.0,77,0.00,,,0.01,WUHU216HW,2013-05-11 17:40:00,
2013-05-11 13:45:00,53.8,46.8,30.40,North,0,0.0,0.0,77,0.00,,,0.01,WUHU216HW,2013-05-11 17:45:00,
2013-05-11 13:50:00,54.0,46.6,30.40,North,0,0.0,0.0,76,0.00,,,0.01,WUHU216HW,2013-05-11 17:50:00,
2013-05-11 13:55:00,54.0,47.0,30.40,North,0,0.0,0.0,77,0.00,,,0.01,WUHU216HW,2013-05-11 17:55:00,
2013-05-11 14:00:00,54.4,47.3,30.40,North,0,0.0,0.0,77,0.00,,,0.01,WUHU216HW,2013-05-11 18:00:00,
2013-05-11 14:05:00,54.7,48.0,30.40,North,0,0.0,0.0,78,0.00,,,0.01,WUHU216HW,2013-05-11 18:05:00,
2013-05-11 14:10:00,55.1,48.3,30.40,North,0,0.0,0.0,78,0.00,,,0.01,WUHU216HW,2013-05-11 18:10:00,
2013-05-11 14:15:00,55.4,48.3,30.40,North,0,0.0,0.0,77,0.00,,,0.01,WUHU216HW,2013-05-11 18:15:00,
2013-05-11 14:20:00,55.8,48.3,30.40,North,0,0.0,0.0,76,0.00,,,0.01,WUHU216HW,2013-05-11 18:20:00,
2013-05-11 14:25:00,56.2,48.6,30.40,North,0,0.0,0.0,76,0.00,,,0.01,WUHU216HW,2013-05-11 18:25:00,
2013-05-11 14:30:00,56.5,49.0,30.40,North,0,0.0,0.0,76,0.00,,,0.01,WUHU216HW,2013-05-11 18:30:00,
2013-05-11 14:35:00,56.5,49.0,30.40,North,0,0.0,0.0,76,0.00,,,0.01,WUHU216HW,2013-05-11 18:35:00,
2013-05-11 14:40:00,56.9,49.3,30.40,North,0,0.0,0.0,76,0.00,,,0.01,WUHU216HW,2013-05-11 18:40:00,
2013-05-11 14:45:00,56.9,48.6,30.40,North,0,0.0,0.0,74,0.00,,,0.01,WUHU216HW,2013-05-11 18:45:00,
2013-05-11 14:51:00,57.1,49.1,30.38,North,0,0.0,0.0,75,0.00,,,0.01,WUHU216HW,2013-05-11 18:51:00,
2013-05-11 14:56:00,57.2,49.3,30.38,North,0,0.0,0.0,75,0.00,,,0.01,WUHU216HW,2013-05-11 18:56:00,
2013-05-11 15:01:00,57.4,49.5,30.38,North,0,0.0,0.0,75,0.00,,,0.01,WUHU216HW,2013-05-11 19:01:00,
2013-05-11 15:06:00,57.8,49.9,30.38,North,0,0.0,0.0,75,0.00,,,0.01,WUHU216HW,2013-05-11 19:06:00,
2013-05-11 15:11:00,58.0,50.0,30.38,North,0,0.0,0.0,75,0.00,,,0.01,WUHU216HW,2013-05-11 19:11:00,
2013-05-11 15:16:00,58.3,50.0,30.38,North,0,0.0,0.0,74,0.00,,,0.01,WUHU216HW,2013-05-11 19:16:00,
2013-05-11 15:21:00,58.7,50.4,30.38,North,0,0.0,0.0,74,0.00,,,0.01,WUHU216HW,2013-05-11 19:21:00,
2013-05-11 15:26:00,58.9,50.2,30.38,North,0,0.0,0.0,73,0.00,,,0.01,WUHU216HW,2013-05-11 19:26:00,
2013-05-11 15:31:00,59.2,49.9,30.38,North,0,0.0,0.0,71,0.00,,,0.01,WUHU216HW,2013-05-11 19:31:00,
2013-05-11 15:36:00,59.8,50.4,30.38,North,0,0.0,0.0,71,0.00,,,0.01,WUHU216HW,2013-05-11 19:36:00,
2013-05-11 15:41:00,60.1,50.4,30.38,North,0,0.0,0.0,70,0.00,,,0.01,WUHU216HW,2013-05-11 19:41:00,
2013-05-11 15:46:00,60.3,50.6,30.38,North,0,0.0,0.0,70,0.00,,,0.01,WUHU216HW,2013-05-11 19:46:00,
2013-05-11 15:52:00,60.7,50.9,30.38,North,0,0.0,0.0,70,0.00,,,0.01,WUHU216HW,2013-05-11 19:52:00,
2013-05-11 15:57:00,60.8,50.7,30.38,North,0,0.0,0.0,69,0.00,,,0.01,WUHU216HW,2013-05-11 19:57:00,
2013-05-11 16:02:00,60.7,50.9,30.38,North,0,0.0,0.0,70,0.00,,,0.01,WUHU216HW,2013-05-11 20:02:00,
2013-05-11 16:07:00,60.5,50.3,30.37,North,0,0.0,0.0,69,0.00,,,0.01,WUHU216HW,2013-05-11 20:07:00,
2013-05-11 16:12:00,60.1,50.0,30.37,North,0,0.0,0.0,69,0.00,,,0.01,WUHU216HW,2013-05-11 20:12:00,
2013-05-11 16:17:00,59.9,50.2,30.37,North,0,0.0,0.0,70,0.00,,,0.01,WUHU216HW,2013-05-11 20:17:00,
2013-05-11 16:22:00,59.9,50.2,30.37,North,0,0.0,0.0,70,0.00,,,0.01,WUHU216HW,2013-05-11 20:22:00,
2013-05-11 16:27:00,59.6,49.4,30.38,North,0,0.0,0.0,69,0.00,,,0.01,WUHU216HW,2013-05-11 20:27:00,
2013-05-11 16:32:00,59.4,50.0,30.38,North,0,0.0,0.0,71,0.00,,,0.01,WUHU216HW,2013-05-11 20:32:00,
2013-05-11 16:37:00,59.2,50.2,30.37,North,0,0.0,0.0,72,0.00,,,0.01,WUHU216HW,2013-05-11 20:37:00,
2013-05-11 16:42:00,59.6,50.9,30.37,North,0,0.0,0.0,73,0.00,,,0.01,WUHU216HW,2013-05-11 20:42:00,
2013-05-11 16:47:00,60.3,52.0,30.36,North,0,0.0,0.0,74,0.00,,,0.01,WUHU216HW,2013-05-11 20:47:00,
2013-05-11 16:52:00,60.8,52.2,30.36,North,0,0.0,0.0,73,0.00,,,0.01,WUHU216HW,2013-05-11 20:52:00,
2013-05-11 16:57:00,61.4,52.7,30.36,North,0,0.0,0.0,73,0.00,,,0.01,WUHU216HW,2013-05-11 20:57:00,
2013-05-11 17:03:00,61.9,53.2,30.35,North,0,0.0,0.0,73,0.00,,,0.01,WUHU216HW,2013-05-11 21:03:00,
2013-05-11 17:08:00,62.6,53.8,30.35,North,0,0.0,0.0,73,0.00,,,0.01,WUHU216HW,2013-05-11 21:08:00,
2013-05-11 17:13:00,63.2,54.4,30.35,North,0,0.0,0.0,73,0.00,,,0.01,WUHU216HW,2013-05-11 21:13:00,
2013-05-11 17:18:00,63.5,54.4,30.35,North,0,0.0,0.0,72,0.00,,,0.01,WUHU216HW,2013-05-11 21:18:00,
2013-05-11 17:23:00,63.7,54.5,30.35,North,0,0.0,0.0,72,0.00,,,0.01,WUHU216HW,2013-05-11 21:23:00,
2013-05-11 17:28:00,64.1,54.5,30.35,North,0,0.0,0.0,71,0.00,,,0.01,WUHU216HW,2013-05-11 21:28:00,
2013-05-11 17:33:00,63.9,54.0,30.35,North,0,0.0,0.0,70,0.00,,,0.01,WUHU216HW,2013-05-11 21:33:00,
2013-05-11 17:38:00,63.7,53.8,30.35,North,0,0.0,0.0,70,0.00,,,0.01,WUHU216HW,2013-05-11 21:38:00,
2013-05-11 17:43:00,63.4,53.5,30.36,North,0,0.0,0.0,70,0.00,,,0.01,WUHU216HW,2013-05-11 21:43:00,
2013-05-11 17:48:00,61.9,52.1,30.36,North,0,0.0,0.0,70,0.00,,,0.01,WUHU216HW,2013-05-11 21:48:00,
2013-05-11 17:53:00,60.1,51.1,30.36,North,0,0.0,0.0,72,0.03,,,0.04,WUHU216HW,2013-05-11 21:53:00,
2013-05-11 17:58:00,59.0,50.4,30.35,North,0,0.0,0.0,73,0.03,,,0.04,WUHU216HW,2013-05-11 21:58:00,
2013-05-11 18:03:00,58.7,50.8,30.35,North,0,0.0,0.0,75,0.04,,,0.05,WUHU216HW,2013-05-11 22:03:00,
2013-05-11 18:09:00,58.9,51.3,30.36,North,0,0.0,0.0,76,0.04,,,0.05,WUHU216HW,2013-05-11 22:09:00,
2013-05-11 18:14:00,59.4,52.6,30.35,North,0,0.0,0.0,78,0.04,,,0.05,WUHU216HW,2013-05-11 22:14:00,
2013-05-11 18:19:00,59.9,53.1,30.35,North,0,0.0,0.0,78,0.04,,,0.05,WUHU216HW,2013-05-11 22:19:00,
2013-05-11 18:24:00,60.3,53.5,30.36,North,0,0.0,0.0,78,0.04,,,0.05,WUHU216HW,2013-05-11 22:24:00,
2013-05-11 18:29:00,60.8,54.0,30.36,North,0,0.0,0.0,78,0.04,,,0.05,WUHU216HW,2013-05-11 22:29:00,
2013-05-11 18:34:00,61.2,54.4,30.36,North,0,0.0,0.0,78,0.04,,,0.05,WUHU216HW,2013-05-11 22:34:00,
2013-05-11 18:39:00,61.6,54.3,30.36,North,0,0.0,0.0,77,0.04,,,0.05,WUHU216HW,2013-05-11 22:39:00,
2013-05-11 18:44:00,61.6,53.6,30.36,North,0,0.0,0.0,75,0.04,,,0.05,WUHU216HW,2013-05-11 22:44:00,
2013-05-11 18:49:00,61.4,53.0,30.36,North,0,0.0,0.0,74,0.03,,,0.05,WUHU216HW,2013-05-11 22:49:00,
2013-05-11 18:54:00,61.2,51.9,30.36,North,0,0.0,0.0,71,0.01,,,0.05,WUHU216HW,2013-05-11 22:54:00,
2013-05-11 18:59:00,61.4,47.9,30.37,North,0,0.0,0.0,61,0.00,,,0.05,WUHU216HW,2013-05-11 22:59:00,
2013-05-11 19:04:00,61.4,48.7,30.38,North,0,0.0,0.0,63,0.00,,,0.05,WUHU216HW,2013-05-11 23:04:00,
2013-05-11 19:09:00,60.3,49.0,30.38,North,0,0.0,0.0,66,0.00,,,0.05,WUHU216HW,2013-05-11 23:09:00,
2013-05-11 19:14:00,59.4,48.9,30.38,North,0,0.0,0.0,68,0.00,,,0.05,WUHU216HW,2013-05-11 23:14:00,
2013-05-11 19:19:00,58.7,48.5,30.39,North,0,0.0,0.0,69,0.00,,,0.05,WUHU216HW,2013-05-11 23:19:00,
2013-05-11 19:24:00,58.1,48.4,30.39,North,0,0.0,0.0,70,0.00,,,0.05,WUHU216HW,2013-05-11 23:24:00,
2013-05-11 19:29:00,57.6,48.2,30.40,North,0,0.0,0.0,71,0.00,,,0.05,WUHU216HW,2013-05-11 23:29:00,
2013-05-11 19:34:00,57.2,47.9,30.40,North,0,0.0,0.0,71,0.00,,,0.05,WUHU216HW,2013-05-11 23:34:00,
2013-05-11 19:39:00,56.9,47.9,30.40,North,0,0.0,0.0,72,0.00,,,0.05,WUHU216HW,2013-05-11 23:39:00,
2013-05-11 19:45:00,56.5,47.6,30.40,North,0,0.0,0.0,72,0.00,,,0.05,WUHU216HW,2013-05-11 23:45:00,
2013-05-11 19:50:00,56.3,47.4,30.41,North,0,0.0,0.0,72,0.00,,,0.05,WUHU216HW,2013-05-11 23:50:00,
2013-05-11 19:55:00,56.2,47.6,30.41,North,0,0.0,0.0,73,0.00,,,0.05,WUHU216HW,2013-05-11 23:55:00,
2013-05-11 20:00:00,56.2,47.6,30.41,North,0,0.0,0.0,73,0.00,,,0.05,WUHU216HW,2013-05-12 00:00:00,
2013-05-11 20:05:00,56.0,47.4,30.41,North,0,0.0,0.0,73,0.00,,,0.05,WUHU216HW,2013-05-12 00:05:00,
2013-05-11 20:10:00,55.8,47.3,30.41,North,0,0.0,0.0,73,0.00,,,0.05,WUHU216HW,2013-05-12 00:10:00,
2013-05-11 20:15:00,55.6,47.1,30.41,North,0,0.0,0.0,73,0.00,,,0.05,WUHU216HW,2013-05-12 00:15:00,
2013-05-11 20:20:00,55.3,47.1,30.41,North,0,0.0,0.0,74,0.00,,,0.05,WUHU216HW,2013-05-12 00:20:00,
2013-05-11 20:25:00,55.1,46.9,30.42,North,0,0.0,0.0,74,0.00,,,0.05,WUHU216HW,2013-05-12 00:25:00,
2013-05-11 20:30:00,55.1,46.9,30.42,North,0,0.0,0.0,74,0.00,,,0.05,WUHU216HW,2013-05-12 00:30:00,
2013-05-11 20:36:00,54.9,46.7,30.42,North,0,0.0,0.0,74,0.00,,,0.05,WUHU216HW,2013-05-12 00:36:00,
2013-05-11 20:41:00,54.4,45.9,30.42,North,0,0.0,0.0,73,0.00,,,0.05,WUHU216HW,2013-05-12 00:41:00,
2013-05-11 20:46:00,54.0,45.6,30.43,North,0,0.0,0.0,73,0.00,,,0.05,WUHU216HW,2013-05-12 00:46:00,
2013-05-11 20:51:00,53.6,45.2,30.43,North,0,0.0,0.0,73,0.00,,,0.05,WUHU216HW,2013-05-12 00:51:00,
2013-05-11 20:56:00,53.3,44.5,30.43,North,0,0.0,0.0,72,0.00,,,0.05,WUHU216HW,2013-05-12 00:56:00,
2013-05-11 21:01:00,52.9,44.2,30.43,North,0,0.0,0.0,72,0.00,,,0.05,WUHU216HW,2013-05-12 01:01:00,
2013-05-11 21:06:00,52.6,43.8,30.43,North,0,0.0,0.0,72,0.00,,,0.05,WUHU216HW,2013-05-12 01:06:00,
2013-05-11 21:11:00,52.4,43.7,30.44,North,0,0.0,0.0,72,0.00,,,0.05,WUHU216HW,2013-05-12 01:11:00,
2013-05-11 21:16:00,52.2,43.5,30.44,North,0,0.0,0.0,72,0.00,,,0.05,WUHU216HW,2013-05-12 01:16:00,
2013-05-11 21:22:00,52.2,43.5,30.45,North,0,0.0,0.0,72,0.00,,,0.05,WUHU216HW,2013-05-12 01:22:00,
2013-05-11 21:27:00,51.8,43.2,30.45,North,0,0.0,0.0,72,0.00,,,0.05,WUHU216HW,2013-05-12 01:27:00,
2013-05-11 21:32:00,51.5,42.9,30.45,North,0,0.0,0.0,72,0.00,,,0.05,WUHU216HW,2013-05-12 01:32:00,
2013-05-11 21:37:00,51.5,42.9,30.46,North,0,0.0,0.0,72,0.00,,,0.05,WUHU216HW,2013-05-12 01:37:00,
2013-05-11 21:42:00,51.3,42.7,30.46,North,0,0.0,0.0,72,0.00,,,0.05,WUHU216HW,2013-05-12 01:42:00,
2013-05-11 21:47:00,51.1,42.5,30.46,North,0,0.0,0.0,72,0.00,,,0.05,WUHU216HW,2013-05-12 01:47:00,
2013-05-11 21:52:00,50.8,42.1,30.46,North,0,0.0,0.0,72,0.00,,,0.05,WUHU216HW,2013-05-12 01:52:00,
2013-05-11 21:57:00,50.6,42.0,30.47,North,0,0.0,0.0,72,0.00,,,0.05,WUHU216HW,2013-05-12 01:57:00,
2013-05-11 22:02:00,50.6,42.0,30.47,North,0,0.0,0.0,72,0.00,,,0.05,WUHU216HW,2013-05-12 02:02:00,
2013-05-11 22:07:00,50.4,41.8,30.47,North,0,0.0,0.0,72,0.00,,,0.05,WUHU216HW,2013-05-12 02:07:00,
2013-05-11 22:12:00,50.0,41.4,30.47,North,0,0.0,0.0,72,0.00,,,0.05,WUHU216HW,2013-05-12 02:12:00,
2013-05-11 22:17:00,50.0,41.4,30.47,North,0,0.0,0.0,72,0.00,,,0.05,WUHU216HW,2013-05-12 02:17:00,
2013-05-11 22:22:00,50.0,41.4,30.48,North,0,0.0,0.0,72,0.00,,,0.05,WUHU216HW,2013-05-12 02:22:00,
2013-05-11 22:27:00,49.9,41.2,30.48,North,0,0.0,0.0,72,0.00,,,0.05,WUHU216HW,2013-05-12 02:27:00,
2013-05-11 22:32:00,49.7,41.1,30.48,North,0,0.0,0.0,72,0.00,,,0.05,WUHU216HW,2013-05-12 02:32:00,
2013-05-11 22:38:00,49.7,41.1,30.48,North,0,0.0,0.0,72,0.00,,,0.05,WUHU216HW,2013-05-12 02:38:00,
2013-05-11 22:43:00,49.5,40.9,30.48,North,0,0.0,0.0,72,0.00,,,0.05,WUHU216HW,2013-05-12 02:43:00,
2013-05-11 22:48:00,49.5,40.9,30.49,North,0,0.0,0.0,72,0.00,,,0.05,WUHU216HW,2013-05-12 02:48:00,
2013-05-11 22:53:00,49.5,40.9,30.49,North,0,0.0,0.0,72,0.00,,,0.05,WUHU216HW,2013-05-12 02:53:00,
2013-05-11 22:58:00,49.3,41.0,30.49,North,0,0.0,0.0,73,0.00,,,0.05,WUHU216HW,2013-05-12 02:58:00,
2013-05-11 23:03:00,49.3,41.0,30.49,North,0,0.0,0.0,73,0.00,,,0.05,WUHU216HW,2013-05-12 03:03:00,
2013-05-11 23:08:00,49.3,41.0,30.49,North,0,0.0,0.0,73,0.00,,,0.05,WUHU216HW,2013-05-12 03:08:00,
2013-05-11 23:13:00,49.3,41.0,30.49,North,0,0.0,0.0,73,0.00,,,0.05,WUHU216HW,2013-05-12 03:13:00,
2013-05-11 23:18:00,49.1,40.8,30.49,North,0,0.0,0.0,73,0.00,,,0.05,WUHU216HW,2013-05-12 03:18:00,
2013-05-11 23:23:00,49.1,40.8,30.50,North,0,0.0,0.0,73,0.00,,,0.05,WUHU216HW,2013-05-12 03:23:00,
2013-05-11 23:29:00,49.0,40.6,30.50,North,0,0.0,0.0,73,0.00,,,0.05,WUHU216HW,2013-05-12 03:29:00,
2013-05-11 23:34:00,48.8,40.4,30.50,North,0,0.0,0.0,73,0.00,,,0.05,WUHU216HW,2013-05-12 03:34:00,
2013-05-11 23:39:00,48.6,40.2,30.51,North,0,0.0,0.0,73,0.00,,,0.05,WUHU216HW,2013-05-12 03:39:00,
2013-05-11 23:44:00,48.4,39.4,30.51,North,0,0.0,0.0,71,0.00,,,0.05,WUHU216HW,2013-05-12 03:44:00,
2013-05-11 23:49:00,48.2,38.9,30.51,North,0,0.0,0.0,70,0.00,,,0.05,WUHU216HW,2013-05-12 03:49:00,
2013-05-11 23:54:00,48.1,38.0,30.51,North,0,0.0,0.0,68,0.00,,,0.05,WUHU216HW,2013-05-12 03:54:00,
2013-05-11 23:59:00,47.9,37.8,30.51,North,0,0.0,0.0,68,0.00,,,0.05,WUHU216HW,2013-05-12 03:59:00,